Time;durP1;ratioP1;P1;durP2;ratioP2;P2;SDS_P1;SDS_P2;PMS_P1;PMS_P2;Temp;Humidity;BMP_temperature;BMP_pressure;BME280_temperature;BME280_humidity;BME280_pressure;Samples;Min_cycle;Max_cycle;Signal;HPM_P1;HPM_P2
2023/01/31 00:01:07;;;;;;;7.30;0.90;;;;;;;;;;5052547;28;20025;-80
2023/01/31 00:03:33;;;;;;;3.27;0.70;;;;;;;;;;5053378;28;20128;-75
2023/01/31 00:06:12;;;;;;;2.87;0.70;;;;;;;;;;5052590;28;20365;-80
2023/01/31 00:08:37;;;;;;;5.33;0.70;;;;;;;;;;5052244;28;20394;-81
2023/01/31 00:11:03;;;;;;;6.40;1.17;;;;;;;;;;5053770;28;20067;-81
2023/01/31 00:13:29;;;;;;;7.07;1.27;;;;;;;;;;5053150;28;20354;-75
2023/01/31 00:15:58;;;;;;;2.33;0.50;;;;;;;;;;5051641;28;20025;-76
2023/01/31 00:18:23;;;;;;;1.73;0.50;;;;;;;;;;5051829;28;20361;-80
2023/01/31 00:20:49;;;;;;;1.97;0.50;;;;;;;;;;5053051;28;20041;-80
2023/01/31 00:23:15;;;;;;;1.93;0.30;;;;;;;;;;5052968;28;20040;-75
2023/01/31 00:25:40;;;;;;;1.10;0.40;;;;;;;;;;5051639;28;20067;-75
2023/01/31 00:28:06;;;;;;;4.77;0.60;;;;;;;;;;5053217;28;20029;-75
2023/01/31 00:30:31;;;;;;;1.63;0.50;;;;;;;;;;5052790;28;20025;-75
2023/01/31 00:32:57;;;;;;;1.37;0.43;;;;;;;;;;5053747;28;20349;-81
2023/01/31 00:35:22;;;;;;;1.90;0.40;;;;;;;;;;5052579;28;20032;-76
2023/01/31 00:37:49;;;;;;;1.40;0.70;;;;;;;;;;5052147;28;20029;-80
2023/01/31 00:40:15;;;;;;;3.23;1.50;;;;;;;;;;5052341;28;20113;-77
2023/01/31 00:42:40;;;;;;;3.30;1.40;;;;;;;;;;5053263;28;20033;-80
2023/01/31 00:45:08;;;;;;;1.90;0.83;;;;;;;;;;5052599;28;20071;-79
2023/01/31 00:47:33;;;;;;;4.40;0.87;;;;;;;;;;5050959;28;20086;-74
2023/01/31 00:49:59;;;;;;;3.37;0.70;;;;;;;;;;5051219;28;20029;-79
2023/01/31 00:52:26;;;;;;;1.77;0.83;;;;;;;;;;5051057;28;20033;-75
2023/01/31 00:54:51;;;;;;;3.40;0.50;;;;;;;;;;5051714;28;20503;-75
2023/01/31 00:57:17;;;;;;;2.63;0.40;;;;;;;;;;5052709;28;20049;-75
2023/01/31 00:59:42;;;;;;;4.03;0.60;;;;;;;;;;5051330;28;20032;-80
2023/01/31 01:02:09;;;;;;;2.13;0.43;;;;;;;;;;5051073;28;20040;-75
2023/01/31 01:04:35;;;;;;;2.73;0.53;;;;;;;;;;5050884;28;20029;-75
2023/01/31 01:07:01;;;;;;;2.60;0.57;;;;;;;;;;5051512;28;20338;-80
2023/01/31 01:09:26;;;;;;;1.73;0.60;;;;;;;;;;5050890;28;20029;-75
2023/01/31 01:11:52;;;;;;;4.17;0.40;;;;;;;;;;5053437;28;20025;-76
2023/01/31 01:14:17;;;;;;;1.70;0.40;;;;;;;;;;5054851;28;20025;-74
2023/01/31 01:16:43;;;;;;;4.93;0.60;;;;;;;;;;5056419;28;20021;-75
2023/01/31 01:19:15;;;;;;;3.07;0.60;;;;;;;;;;5055048;28;20464;-75
2023/01/31 01:21:43;;;;;;;3.87;1.20;;;;;;;;;;5056608;28;20476;-75
2023/01/31 01:24:14;;;;;;;2.30;0.73;;;;;;;;;;5056461;28;20021;-80
2023/01/31 01:26:40;;;;;;;4.00;0.80;;;;;;;;;;5056128;28;20337;-80
2023/01/31 01:29:06;;;;;;;3.73;0.77;;;;;;;;;;5056746;28;20029;-81
2023/01/31 01:31:31;;;;;;;5.87;0.93;;;;;;;;;;5054684;28;20025;-75
2023/01/31 01:34:00;;;;;;;4.23;1.00;;;;;;;;;;5054605;28;20108;-81
2023/01/31 01:36:27;;;;;;;4.07;0.80;;;;;;;;;;5054652;28;20036;-76
2023/01/31 01:38:53;;;;;;;1.83;0.67;;;;;;;;;;5054670;28;20025;-75
2023/01/31 01:41:19;;;;;;;4.70;0.70;;;;;;;;;;5054974;28;20032;-74
2023/01/31 01:43:51;;;;;;;4.73;0.70;;;;;;;;;;5056933;28;20090;-79
2023/01/31 01:46:31;;;;;;;4.20;0.80;;;;;;;;;;5054559;28;20041;-76
2023/01/31 01:49:04;;;;;;;2.93;0.67;;;;;;;;;;5055150;28;20029;-81
2023/01/31 01:51:32;;;;;;;2.90;1.17;;;;;;;;;;5054169;28;20487;-80
2023/01/31 01:54:01;;;;;;;5.27;1.00;;;;;;;;;;5054715;28;20028;-79
2023/01/31 01:56:32;;;;;;;4.43;0.80;;;;;;;;;;5056146;28;20040;-80
2023/01/31 01:59:14;;;;;;;5.83;1.17;;;;;;;;;;5054543;28;20036;-80
2023/01/31 02:01:40;;;;;;;4.10;0.70;;;;;;;;;;5054776;28;20357;-79
2023/01/31 02:04:09;;;;;;;6.17;1.20;;;;;;;;;;5054483;28;20032;-75
2023/01/31 02:06:35;;;;;;;7.93;0.70;;;;;;;;;;5054036;28;20107;-75
2023/01/31 02:09:06;;;;;;;3.50;0.80;;;;;;;;;;5054035;28;20041;-80
2023/01/31 02:11:32;;;;;;;7.85;0.90;;;;;;;;;;5055430;28;20048;-75
2023/01/31 02:14:08;;;;;;;2.83;0.73;;;;;;;;;;5055836;28;20098;-80
2023/01/31 02:16:34;;;;;;;6.33;0.80;;;;;;;;;;5055926;28;20033;-81
2023/01/31 02:19:01;;;;;;;2.67;0.90;;;;;;;;;;5054243;28;20120;-76
2023/01/31 02:22:00;;;;;;;7.37;1.27;;;;;;;;;;5054006;28;20364;-75
2023/01/31 02:24:59;;;;;;;3.13;0.70;;;;;;;;;;5054226;28;20048;-79
2023/01/31 02:27:46;;;;;;;6.57;1.10;;;;;;;;;;5054334;28;20135;-75
2023/01/31 02:30:21;;;;;;;9.93;2.73;;;;;;;;;;5053386;28;20040;-80
2023/01/31 02:33:06;;;;;;;5.87;0.60;;;;;;;;;;5053534;28;20024;-76
2023/01/31 02:35:53;;;;;;;3.83;1.17;;;;;;;;;;5055559;28;20031;-80
2023/01/31 02:38:40;;;;;;;7.67;1.50;;;;;;;;;;5053598;28;20534;-75
2023/01/31 02:41:40;;;;;;;5.60;0.90;;;;;;;;;;5055240;28;20025;-79
2023/01/31 02:47:32;;;;;;;5.37;1.10;;;;;;;;;;5055032;28;20436;-81
2023/01/31 02:50:03;;;;;;;5.47;1.30;;;;;;;;;;5053166;28;20124;-81
2023/01/31 02:52:44;;;;;;;2.28;0.60;;;;;;;;;;5055571;28;20036;-80
2023/01/31 02:58:21;;;;;;;3.93;0.73;;;;;;;;;;5054793;28;20114;-74
2023/01/31 03:00:48;;;;;;;1.93;1.10;;;;;;;;;;5053063;28;20032;-75
2023/01/31 03:03:30;;;;;;;2.33;0.60;;;;;;;;;;5055425;28;20096;-74
2023/01/31 03:06:13;;;;;;;4.45;0.65;;;;;;;;;;5055166;28;20116;-76
2023/01/31 03:08:42;;;;;;;1.90;0.60;;;;;;;;;;5054226;28;20029;-75
2023/01/31 03:11:08;;;;;;;2.53;0.50;;;;;;;;;;5054240;28;20491;-80
2023/01/31 03:13:53;;;;;;;2.47;0.70;;;;;;;;;;5056250;28;20090;-75
2023/01/31 03:19:12;;;;;;;1.73;0.83;;;;;;;;;;5055463;28;20147;-80
2023/01/31 03:21:49;;;;;;;4.53;0.60;;;;;;;;;;5054187;28;20033;-74
2023/01/31 03:24:17;;;;;;;4.63;0.50;;;;;;;;;;5054019;28;20480;-79
2023/01/31 03:26:44;;;;;;;8.97;1.20;;;;;;;;;;5055673;28;20385;-75
2023/01/31 03:29:15;;;;;;;2.17;0.70;;;;;;;;;;5053816;28;20033;-80
2023/01/31 03:31:58;;;;;;;1.70;0.43;;;;;;;;;;5054437;28;20068;-80
2023/01/31 03:34:25;;;;;;;4.00;0.60;;;;;;;;;;5052541;28;20128;-76
2023/01/31 03:37:11;;;;;;;4.30;0.70;;;;;;;;;;5054820;28;20039;-80
2023/01/31 03:39:50;;;;;;;2.50;0.70;;;;;;;;;;5053782;28;20027;-74
2023/01/31 03:42:25;;;;;;;6.13;1.00;;;;;;;;;;5054565;28;20048;-74
2023/01/31 03:45:05;;;;;;;1.20;0.37;;;;;;;;;;5052830;28;20045;-74
2023/01/31 03:47:37;;;;;;;7.03;2.13;;;;;;;;;;5053353;28;20024;-80
2023/01/31 03:50:13;;;;;;;3.28;0.82;;;;;;;;;;5053045;28;20352;-75
2023/01/31 03:52:45;;;;;;;7.70;1.40;;;;;;;;;;5054486;28;20543;-74
2023/01/31 03:55:16;;;;;;;2.88;0.70;;;;;;;;;;5054507;28;20028;-74
2023/01/31 03:57:45;;;;;;;5.50;1.15;;;;;;;;;;5055310;28;20075;-79
2023/01/31 04:00:14;;;;;;;6.20;1.00;;;;;;;;;;5054930;28;20029;-80
2023/01/31 04:02:40;;;;;;;3.80;1.17;;;;;;;;;;5052919;28;20026;-75
2023/01/31 04:05:18;;;;;;;0.80;0.57;;;;;;;;;;5055299;28;20063;-79
2023/01/31 04:07:44;;;;;;;2.77;0.77;;;;;;;;;;5054425;28;20086;-76
2023/01/31 04:10:16;;;;;;;3.60;0.60;;;;;;;;;;5053745;28;20427;-80
2023/01/31 04:12:42;;;;;;;2.57;0.60;;;;;;;;;;5053548;28;20047;-76
2023/01/31 04:15:08;;;;;;;5.60;0.90;;;;;;;;;;5052259;28;20430;-75
2023/01/31 04:17:34;;;;;;;2.63;1.07;;;;;;;;;;5053256;28;20024;-79
2023/01/31 04:20:00;;;;;;;6.23;0.43;;;;;;;;;;5053264;28;20021;-75
2023/01/31 04:22:25;;;;;;;2.63;0.87;;;;;;;;;;5054349;28;20025;-79
2023/01/31 04:24:51;;;;;;;1.70;0.70;;;;;;;;;;5052362;28;20025;-75
2023/01/31 04:27:16;;;;;;;3.07;0.80;;;;;;;;;;5053535;28;20025;-74
2023/01/31 04:29:43;;;;;;;1.53;0.60;;;;;;;;;;5052798;28;20052;-74
2023/01/31 04:32:09;;;;;;;1.43;0.53;;;;;;;;;;5053879;28;20124;-80
2023/01/31 04:34:34;;;;;;;1.23;0.53;;;;;;;;;;5054914;28;20365;-80
2023/01/31 04:37:00;;;;;;;1.33;0.53;;;;;;;;;;5051895;28;20464;-74
2023/01/31 04:39:26;;;;;;;3.00;0.50;;;;;;;;;;5053091;28;20389;-76
2023/01/31 04:41:52;;;;;;;5.97;0.80;;;;;;;;;;5053780;28;20428;-73
2023/01/31 04:44:17;;;;;;;5.30;0.90;;;;;;;;;;5054656;28;20090;-74
2023/01/31 04:46:45;;;;;;;7.33;0.80;;;;;;;;;;5054980;28;20085;-80
2023/01/31 04:49:11;;;;;;;3.90;1.00;;;;;;;;;;5053554;28;20025;-74
2023/01/31 04:51:37;;;;;;;1.70;0.93;;;;;;;;;;5051936;28;20029;-74
2023/01/31 04:54:03;;;;;;;3.10;0.77;;;;;;;;;;5052103;28;20503;-76
2023/01/31 04:56:28;;;;;;;5.57;0.83;;;;;;;;;;5053132;28;20485;-75
2023/01/31 04:58:54;;;;;;;2.40;0.63;;;;;;;;;;5055761;28;20027;-75
2023/01/31 05:01:20;;;;;;;5.63;0.73;;;;;;;;;;5053593;28;20465;-73
2023/01/31 05:03:45;;;;;;;3.80;1.07;;;;;;;;;;5052491;28;20021;-75
2023/01/31 05:06:11;;;;;;;6.57;0.60;;;;;;;;;;5054748;28;20033;-79
2023/01/31 05:08:36;;;;;;;5.93;0.63;;;;;;;;;;5053724;28;20056;-81
2023/01/31 05:11:03;;;;;;;6.03;0.63;;;;;;;;;;5054732;28;20021;-74
2023/01/31 05:13:31;;;;;;;2.00;0.70;;;;;;;;;;5053860;28;20057;-79
2023/01/31 05:15:57;;;;;;;4.47;0.73;;;;;;;;;;5054029;28;20025;-73
2023/01/31 05:18:26;;;;;;;5.80;0.50;;;;;;;;;;5051924;28;20036;-75
2023/01/31 05:20:52;;;;;;;1.40;0.73;;;;;;;;;;5051772;28;20083;-75
2023/01/31 05:23:17;;;;;;;3.17;0.87;;;;;;;;;;5051852;28;20439;-75
2023/01/31 05:25:44;;;;;;;4.40;1.13;;;;;;;;;;5053838;28;20112;-75
2023/01/31 05:28:11;;;;;;;3.43;0.57;;;;;;;;;;5053063;28;20496;-75
2023/01/31 05:30:37;;;;;;;7.97;1.20;;;;;;;;;;5053033;28;20460;-75
2023/01/31 05:33:02;;;;;;;5.27;1.00;;;;;;;;;;5053831;28;20029;-77
2023/01/31 05:35:29;;;;;;;3.57;0.60;;;;;;;;;;5053448;28;20039;-73
2023/01/31 05:37:55;;;;;;;5.20;0.70;;;;;;;;;;5051902;28;20060;-74
2023/01/31 05:40:21;;;;;;;3.17;0.70;;;;;;;;;;5052059;28;20033;-74
2023/01/31 05:42:59;;;;;;;2.53;0.80;;;;;;;;;;5053067;28;20104;-75
2023/01/31 05:45:26;;;;;;;6.97;1.23;;;;;;;;;;5052883;28;20390;-79
2023/01/31 05:47:52;;;;;;;4.37;0.83;;;;;;;;;;5052276;28;20128;-75
2023/01/31 05:50:18;;;;;;;2.43;1.10;;;;;;;;;;5052712;28;20434;-81
2023/01/31 05:52:58;;;;;;;6.97;1.10;;;;;;;;;;5052930;28;20029;-75
2023/01/31 05:55:25;;;;;;;3.87;0.90;;;;;;;;;;5052234;28;20185;-82
2023/01/31 05:57:52;;;;;;;7.00;1.10;;;;;;;;;;5054432;28;20025;-81
2023/01/31 06:00:18;;;;;;;3.57;0.80;;;;;;;;;;5057481;28;20025;-75
2023/01/31 06:02:46;;;;;;;5.37;0.70;;;;;;;;;;5057214;28;20503;-81
2023/01/31 06:05:13;;;;;;;4.03;0.97;;;;;;;;;;5057216;28;20021;-75
2023/01/31 06:07:39;;;;;;;10.70;1.23;;;;;;;;;;5056690;28;20032;-81
2023/01/31 06:10:07;;;;;;;7.80;1.40;;;;;;;;;;5056616;28;20025;-76
2023/01/31 06:12:33;;;;;;;5.67;1.63;;;;;;;;;;5055007;28;20124;-82
2023/01/31 06:14:59;;;;;;;2.07;0.90;;;;;;;;;;5038813;28;20036;-76
2023/01/31 06:17:24;;;;;;;6.87;1.10;;;;;;;;;;5055153;28;20032;-79
2023/01/31 06:19:50;;;;;;;9.23;1.60;;;;;;;;;;5056429;28;20021;-81
2023/01/31 06:22:17;;;;;;;5.50;1.30;;;;;;;;;;5057164;28;20417;-75
2023/01/31 06:24:43;;;;;;;3.37;1.10;;;;;;;;;;5056669;28;20021;-75
2023/01/31 06:27:09;;;;;;;3.40;1.23;;;;;;;;;;5057786;28;20113;-76
2023/01/31 06:29:34;;;;;;;7.90;1.50;;;;;;;;;;5038317;28;20032;-75
2023/01/31 06:32:00;;;;;;;9.83;1.40;;;;;;;;;;5057141;28;20441;-75
2023/01/31 06:34:25;;;;;;;2.00;1.13;;;;;;;;;;5056108;28;20123;-76
2023/01/31 06:36:51;;;;;;;5.77;1.23;;;;;;;;;;5056060;28;20067;-75
2023/01/31 06:39:19;;;;;;;5.23;1.40;;;;;;;;;;5056336;28;20021;-82
2023/01/31 06:41:45;;;;;;;8.60;1.50;;;;;;;;;;5055370;28;20052;-77
2023/01/31 06:44:11;;;;;;;12.13;2.00;;;;;;;;;;5055863;28;20029;-76
2023/01/31 06:46:37;;;;;;;7.47;2.00;;;;;;;;;;5056485;28;20181;-74
2023/01/31 06:49:03;;;;;;;4.07;1.37;;;;;;;;;;5056628;28;20108;-79
2023/01/31 06:51:29;;;;;;;12.23;1.80;;;;;;;;;;5038448;28;20029;-79
2023/01/31 06:53:55;;;;;;;11.97;2.37;;;;;;;;;;5055950;28;20047;-75
2023/01/31 06:56:21;;;;;;;2.93;1.17;;;;;;;;;;5055745;28;20385;-81
2023/01/31 06:58:47;;;;;;;12.40;1.90;;;;;;;;;;5055040;28;20536;-76
2023/01/31 07:01:14;;;;;;;3.10;1.37;;;;;;;;;;5056883;28;20111;-79
2023/01/31 07:03:40;;;;;;;4.97;1.27;;;;;;;;;;5054605;28;20120;-77
2023/01/31 07:06:07;;;;;;;4.50;0.90;;;;;;;;;;5055874;28;20032;-75
2023/01/31 07:08:33;;;;;;;6.30;1.30;;;;;;;;;;5054672;28;20029;-76
2023/01/31 07:11:00;;;;;;;4.77;1.43;;;;;;;;;;5056580;28;20531;-78
2023/01/31 07:13:27;;;;;;;8.83;1.37;;;;;;;;;;5056352;28;20032;-74
2023/01/31 07:15:53;;;;;;;2.13;1.20;;;;;;;;;;5058102;28;20043;-81
2023/01/31 07:18:19;;;;;;;8.67;1.27;;;;;;;;;;5056460;28;20387;-84
2023/01/31 07:20:45;;;;;;;5.50;1.37;;;;;;;;;;5055806;28;20131;-78
2023/01/31 07:23:10;;;;;;;4.13;1.07;;;;;;;;;;5055727;28;20036;-79
2023/01/31 07:25:36;;;;;;;6.00;1.17;;;;;;;;;;5057062;28;20025;-80
2023/01/31 07:28:05;;;;;;;8.83;1.67;;;;;;;;;;5056155;28;20024;-84
2023/01/31 07:30:35;;;;;;;6.83;1.43;;;;;;;;;;5056774;28;20044;-83
2023/01/31 07:33:01;;;;;;;4.00;1.13;;;;;;;;;;5057521;28;20025;-81
2023/01/31 07:35:29;;;;;;;3.20;1.13;;;;;;;;;;5056718;28;20048;-82
2023/01/31 07:37:56;;;;;;;7.23;2.67;;;;;;;;;;5058114;28;20024;-76
2023/01/31 07:40:22;;;;;;;6.57;1.43;;;;;;;;;;5057923;28;20025;-78
2023/01/31 07:42:48;;;;;;;7.90;1.30;;;;;;;;;;5055253;28;20056;-81
2023/01/31 07:45:14;;;;;;;8.23;1.60;;;;;;;;;;5056841;28;20108;-81
2023/01/31 07:47:41;;;;;;;4.80;1.47;;;;;;;;;;5057986;28;20381;-84
2023/01/31 07:50:08;;;;;;;4.83;1.47;;;;;;;;;;5055948;28;20039;-76
2023/01/31 07:52:33;;;;;;;5.03;1.30;;;;;;;;;;5055953;28;20025;-75
2023/01/31 07:54:59;;;;;;;6.83;1.50;;;;;;;;;;5057474;28;20027;-80
2023/01/31 07:57:24;;;;;;;6.87;1.30;;;;;;;;;;5058079;28;20048;-82
2023/01/31 07:59:50;;;;;;;5.13;1.37;;;;;;;;;;5056333;28;20021;-76
2023/01/31 08:05:01;;;;;;;8.53;1.53;;;;;;;;;;5058549;28;20103;-80
2023/01/31 08:07:28;;;;;;;10.67;1.90;;;;;;;;;;5055509;28;20029;-83
2023/01/31 08:09:55;;;;;;;4.43;2.17;;;;;;;;;;5055584;28;20029;-78
2023/01/31 08:12:22;;;;;;;5.00;1.40;;;;;;;;;;5055924;28;20020;-81
2023/01/31 08:14:47;;;;;;;4.33;1.40;;;;;;;;;;5038718;28;20150;-76
2023/01/31 08:17:13;;;;;;;4.53;1.47;;;;;;;;;;5057021;28;20040;-80
2023/01/31 08:19:38;;;;;;;4.87;1.30;;;;;;;;;;5056762;28;20416;-84
2023/01/31 08:22:05;;;;;;;8.23;1.37;;;;;;;;;;5056245;28;20025;-76
2023/01/31 08:24:32;;;;;;;3.90;1.13;;;;;;;;;;5056365;28;20208;-81
2023/01/31 08:26:59;;;;;;;6.63;1.93;;;;;;;;;;5054739;28;20025;-81
2023/01/31 08:29:25;;;;;;;9.90;1.90;;;;;;;;;;5055575;28;20025;-86
2023/01/31 08:31:52;;;;;;;5.37;1.40;;;;;;;;;;5057740;28;20032;-81
2023/01/31 08:34:18;;;;;;;9.33;1.93;;;;;;;;;;5054735;28;20039;-76
2023/01/31 08:36:44;;;;;;;4.17;0.97;;;;;;;;;;5056759;28;20025;-81
2023/01/31 08:39:10;;;;;;;10.53;1.47;;;;;;;;;;5053928;28;20330;-78
2023/01/31 08:41:37;;;;;;;9.27;1.50;;;;;;;;;;5054183;28;20477;-76
2023/01/31 08:44:04;;;;;;;7.27;1.20;;;;;;;;;;5037580;28;20101;-79
2023/01/31 08:46:34;;;;;;;6.23;1.93;;;;;;;;;;5055870;28;20053;-82
2023/01/31 08:49:08;;;;;;;5.33;1.27;;;;;;;;;;5054942;28;20025;-78
2023/01/31 08:51:36;;;;;;;7.90;1.30;;;;;;;;;;5039980;28;20029;-86
2023/01/31 08:54:01;;;;;;;4.90;1.50;;;;;;;;;;5057603;28;20032;-77
2023/01/31 08:56:30;;;;;;;4.50;1.60;;;;;;;;;;5057484;28;20045;-86
2023/01/31 08:58:56;;;;;;;6.03;1.50;;;;;;;;;;5056735;28;20013;-78
2023/01/31 09:01:22;;;;;;;11.00;2.07;;;;;;;;;;5056207;28;20024;-78
2023/01/31 09:03:55;;;;;;;2.07;0.90;;;;;;;;;;5055929;28;20074;-81
2023/01/31 09:06:23;;;;;;;5.83;1.70;;;;;;;;;;5053332;28;20041;-80
2023/01/31 09:08:51;;;;;;;3.80;1.10;;;;;;;;;;5054569;28;20025;-74
2023/01/31 09:11:18;;;;;;;10.60;1.47;;;;;;;;;;5053959;28;20040;-74
2023/01/31 09:13:45;;;;;;;2.60;1.17;;;;;;;;;;5053738;28;20029;-80
2023/01/31 09:16:12;;;;;;;7.50;2.00;;;;;;;;;;5040056;28;20036;-74
2023/01/31 09:18:39;;;;;;;7.23;1.57;;;;;;;;;;5053270;28;20099;-81
2023/01/31 09:21:10;;;;;;;5.20;1.60;;;;;;;;;;5055449;28;20053;-76
2023/01/31 09:23:36;;;;;;;30.63;4.37;;;;;;;;;;5054693;28;20028;-82
2023/01/31 09:26:02;;;;;;;84.87;11.17;;;;;;;;;;5056425;28;20322;-79
2023/01/31 09:28:28;;;;;;;69.97;7.83;;;;;;;;;;5053347;28;20036;-75
2023/01/31 09:31:00;;;;;;;8.47;2.07;;;;;;;;;;5054696;28;20401;-82
2023/01/31 09:33:26;;;;;;;9.13;1.80;;;;;;;;;;5056744;28;20032;-75
2023/01/31 09:35:56;;;;;;;6.93;1.87;;;;;;;;;;5060236;28;20021;-77
2023/01/31 09:38:22;;;;;;;5.03;1.40;;;;;;;;;;5058730;28;20032;-78
2023/01/31 09:40:49;;;;;;;6.60;1.20;;;;;;;;;;5059393;28;20029;-76
2023/01/31 09:43:18;;;;;;;4.20;1.13;;;;;;;;;;5056660;28;20472;-83
2023/01/31 09:45:47;;;;;;;3.70;1.13;;;;;;;;;;5058295;28;20053;-75
2023/01/31 09:48:25;;;;;;;6.13;1.20;;;;;;;;;;5041956;28;20048;-79
2023/01/31 09:50:54;;;;;;;5.30;1.10;;;;;;;;;;5057359;28;20027;-77
2023/01/31 09:53:23;;;;;;;3.63;1.23;;;;;;;;;;5057671;28;20036;-80
2023/01/31 09:55:54;;;;;;;4.50;1.03;;;;;;;;;;5057306;28;20056;-81
2023/01/31 09:58:25;;;;;;;7.30;1.35;;;;;;;;;;5060845;28;20048;-77
2023/01/31 10:01:12;;;;;;;4.13;1.13;;;;;;;;;;5059089;28;20108;-81
2023/01/31 10:03:40;;;;;;;16.63;1.90;;;;;;;;;;5059426;28;20103;-82
2023/01/31 10:06:23;;;;;;;5.47;1.30;;;;;;;;;;5058787;28;20469;-78
2023/01/31 10:09:02;;;;;;;4.32;1.23;;;;;;;;;;5061820;28;20370;-76
2023/01/31 10:11:34;;;;;;;4.50;1.53;;;;;;;;;;5060025;28;20465;-78
2023/01/31 10:14:16;;;;;;;4.18;1.30;;;;;;;;;;5057751;28;20079;-81
2023/01/31 10:16:45;;;;;;;;;;;;;;;;;;5058891;28;20075;-86
2023/01/31 10:19:20;;;;;;;3.17;1.00;;;;;;;;;;5059211;28;19956;-83
2023/01/31 10:21:51;;;;;;;7.47;1.43;;;;;;;;;;5056753;28;20461;-76
2023/01/31 10:24:24;;;;;;;6.47;1.63;;;;;;;;;;5060249;28;20032;-81
2023/01/31 10:26:54;;;;;;;10.60;2.03;;;;;;;;;;5058318;28;20400;-82
2023/01/31 10:29:30;;;;;;;4.73;1.30;;;;;;;;;;5060697;28;20036;-82
2023/01/31 10:31:58;;;;;;;6.37;1.50;;;;;;;;;;5059188;28;20143;-78
2023/01/31 10:34:29;;;;;;;5.30;1.30;;;;;;;;;;5058552;28;20033;-76
2023/01/31 10:37:01;;;;;;;4.43;1.70;;;;;;;;;;5059994;28;20068;-77
2023/01/31 10:39:40;;;;;;;9.93;2.35;;;;;;;;;;5057209;28;20261;-85
2023/01/31 10:42:11;;;;;;;8.13;1.40;;;;;;;;;;5060875;28;20060;-86
2023/01/31 10:44:39;;;;;;;8.80;1.80;;;;;;;;;;5056754;28;20345;-85
2023/01/31 10:47:13;;;;;;;7.90;1.87;;;;;;;;;;5058710;28;20025;-77
2023/01/31 10:49:40;;;;;;;6.40;1.67;;;;;;;;;;5059848;28;20029;-86
2023/01/31 10:52:27;;;;;;;15.23;2.30;;;;;;;;;;5058123;28;20017;-75
2023/01/31 10:55:23;;;;;;;6.67;1.60;;;;;;;;;;5057682;28;20082;-83
2023/01/31 10:57:50;;;;;;;4.73;1.23;;;;;;;;;;5060561;28;20021;-85
2023/01/31 11:00:25;;;;;;;8.60;1.77;;;;;;;;;;5059863;28;20104;-77
2023/01/31 11:02:51;;;;;;;5.90;1.40;;;;;;;;;;5058640;28;20066;-76
2023/01/31 11:05:23;;;;;;;5.07;1.87;;;;;;;;;;5057702;28;20033;-86
2023/01/31 11:07:49;;;;;;;4.80;1.13;;;;;;;;;;5057322;28;20032;-75
2023/01/31 11:10:30;;;;;;;5.93;1.50;;;;;;;;;;5057071;28;20125;-83
2023/01/31 11:13:08;;;;;;;7.90;1.43;;;;;;;;;;5058072;28;20032;-78
2023/01/31 11:15:41;;;;;;;4.37;1.30;;;;;;;;;;5057201;28;20035;-84
2023/01/31 11:18:16;;;;;;;5.43;1.63;;;;;;;;;;5057124;28;20031;-79
2023/01/31 11:20:46;;;;;;;5.63;1.23;;;;;;;;;;5056147;28;20028;-79
2023/01/31 11:23:24;;;;;;;4.20;1.27;;;;;;;;;;5057676;28;20053;-83
2023/01/31 11:25:52;;;;;;;8.63;1.63;;;;;;;;;;5058288;28;20029;-77
2023/01/31 11:28:21;;;;;;;6.33;1.50;;;;;;;;;;5058953;28;20033;-76
2023/01/31 11:30:57;;;;;;;7.87;1.47;;;;;;;;;;5055976;28;20380;-82
2023/01/31 11:33:43;;;;;;;4.27;1.00;;;;;;;;;;5057573;28;20534;-80
2023/01/31 11:36:12;;;;;;;3.33;1.17;;;;;;;;;;5056005;28;20025;-74
2023/01/31 11:38:37;;;;;;;11.47;2.27;;;;;;;;;;5056581;28;20046;-76
2023/01/31 11:41:34;;;;;;;4.30;1.30;;;;;;;;;;5040470;28;20036;-82
2023/01/31 11:44:11;;;;;;;12.23;1.47;;;;;;;;;;5056485;28;20033;-74
2023/01/31 11:46:56;;;;;;;14.17;3.40;;;;;;;;;;5055173;28;20059;-74
2023/01/31 11:49:35;;;;;;;4.20;1.53;;;;;;;;;;5055674;28;20167;-75
2023/01/31 11:52:22;;;;;;;5.80;1.33;;;;;;;;;;5054944;28;20049;-75
2023/01/31 11:54:54;;;;;;;7.53;1.47;;;;;;;;;;5058694;28;20056;-82
2023/01/31 11:57:22;;;;;;;5.67;1.63;;;;;;;;;;5056934;28;20024;-76
2023/01/31 11:59:54;;;;;;;8.57;2.43;;;;;;;;;;5055580;28;20047;-77
2023/01/31 12:02:38;;;;;;;8.27;1.67;;;;;;;;;;5057039;28;20354;-78
2023/01/31 12:05:14;;;;;;;6.40;1.67;;;;;;;;;;5056776;28;20487;-81
2023/01/31 12:07:52;;;;;;;5.07;1.50;;;;;;;;;;5058888;28;20033;-83
2023/01/31 12:10:32;;;;;;;5.50;2.07;;;;;;;;;;5054039;28;20035;-79
2023/01/31 12:13:01;;;;;;;4.87;1.80;;;;;;;;;;5056474;28;20028;-84
2023/01/31 12:15:30;;;;;;;4.70;1.57;;;;;;;;;;5057612;28;20039;-76
2023/01/31 12:18:01;;;;;;;6.73;1.37;;;;;;;;;;5055510;28;20408;-75
2023/01/31 12:20:42;;;;;;;7.77;2.30;;;;;;;;;;5056949;28;20036;-79
2023/01/31 12:23:49;;;;;;;6.40;1.57;;;;;;;;;;5055665;28;20063;-78
2023/01/31 12:26:32;;;;;;;6.97;2.00;;;;;;;;;;5037853;28;20025;-79
2023/01/31 12:29:40;;;;;;;4.90;1.90;;;;;;;;;;5054833;28;20029;-74
2023/01/31 12:32:43;;;;;;;4.70;1.77;;;;;;;;;;5011852;28;20041;-82
2023/01/31 12:35:34;;;;;;;6.77;1.57;;;;;;;;;;5058741;28;20043;-77
2023/01/31 12:38:39;;;;;;;8.63;2.03;;;;;;;;;;5057442;28;20028;-76
2023/01/31 12:41:13;;;;;;;7.63;2.20;;;;;;;;;;5055014;28;20029;-82
2023/01/31 12:43:48;;;;;;;9.43;2.03;;;;;;;;;;5054056;28;20033;-76
2023/01/31 12:46:24;;;;;;;4.13;1.80;;;;;;;;;;5055713;28;20559;-77
2023/01/31 12:49:12;;;;;;;9.70;2.07;;;;;;;;;;5054666;28;20614;-74
2023/01/31 12:51:59;;;;;;;14.23;2.67;;;;;;;;;;5055462;28;20033;-80
2023/01/31 12:54:28;;;;;;;5.00;2.30;;;;;;;;;;5055134;28;20100;-81
2023/01/31 12:57:27;;;;;;;7.73;1.83;;;;;;;;;;5054155;28;20044;-80
2023/01/31 13:00:18;;;;;;;5.77;2.40;;;;;;;;;;5055009;28;20043;-76
2023/01/31 13:03:15;;;;;;;9.32;1.73;;;;;;;;;;5057314;28;20036;-79
2023/01/31 13:05:47;;;;;;;4.23;1.33;;;;;;;;;;5056334;28;20033;-75
2023/01/31 13:08:33;;;;;;;7.20;2.35;;;;;;;;;;5059388;28;20029;-82
2023/01/31 13:11:10;;;;;;;9.47;2.50;;;;;;;;;;5055937;28;20033;-77
2023/01/31 13:13:50;;;;;;;5.13;2.10;;;;;;;;;;5060210;28;20032;-84
2023/01/31 13:16:21;;;;;;;4.70;2.13;;;;;;;;;;5059187;28;20057;-76
2023/01/31 13:18:53;;;;;;;7.33;2.50;;;;;;;;;;5059612;28;20028;-78
2023/01/31 13:21:26;;;;;;;16.17;2.35;;;;;;;;;;5041747;28;20029;-79
2023/01/31 13:24:05;;;;;;;6.77;2.43;;;;;;;;;;5058936;28;20029;-78
2023/01/31 13:27:00;;;;;;;9.97;2.67;;;;;;;;;;5057504;28;20029;-80
2023/01/31 13:29:36;;;;;;;4.17;1.63;;;;;;;;;;5057482;28;20120;-76
2023/01/31 13:32:10;;;;;;;4.93;1.80;;;;;;;;;;5059986;28;20028;-80
2023/01/31 13:34:57;;;;;;;8.13;2.30;;;;;;;;;;5058317;28;20108;-78
2023/01/31 13:37:25;;;;;;;7.03;2.33;;;;;;;;;;5060167;28;20024;-84
2023/01/31 13:40:22;;;;;;;16.00;3.33;;;;;;;;;;5057572;28;20028;-76
2023/01/31 13:42:49;;;;;;;8.60;2.53;;;;;;;;;;5058255;28;20029;-75
2023/01/31 13:45:42;;;;;;;8.33;2.80;;;;;;;;;;5058022;28;20146;-78
2023/01/31 13:48:24;;;;;;;11.97;2.67;;;;;;;;;;5059424;28;20029;-80
2023/01/31 13:51:03;;;;;;;6.32;2.25;;;;;;;;;;5057117;28;20025;-79
2023/01/31 13:53:35;;;;;;;27.23;9.73;;;;;;;;;;5059051;28;20087;-79
2023/01/31 13:56:45;;;;;;;8.25;2.38;;;;;;;;;;5060577;28;20116;-78
2023/01/31 13:59:22;;;;;;;13.27;2.57;;;;;;;;;;5049598;28;20029;-77
2023/01/31 14:01:50;;;;;;;6.63;2.30;;;;;;;;;;5057434;28;20017;-75
2023/01/31 14:04:17;;;;;;;9.73;2.20;;;;;;;;;;5041616;28;20029;-82
2023/01/31 14:06:58;;;;;;;9.67;2.73;;;;;;;;;;5059111;28;20029;-78
2023/01/31 14:09:34;;;;;;;9.17;1.70;;;;;;;;;;5057328;28;20029;-75
2023/01/31 14:12:09;;;;;;;10.37;2.57;;;;;;;;;;5057386;28;20032;-78
2023/01/31 14:14:40;;;;;;;9.03;3.63;;;;;;;;;;5056916;28;20025;-76
2023/01/31 14:17:34;;;;;;;14.47;2.30;;;;;;;;;;5058068;28;20099;-77
2023/01/31 14:20:27;;;;;;;10.40;2.47;;;;;;;;;;5055039;28;20021;-80
2023/01/31 14:23:21;;;;;;;13.67;2.57;;;;;;;;;;5056878;28;20078;-79
2023/01/31 14:25:49;;;;;;;12.37;2.50;;;;;;;;;;5057718;28;20082;-83
2023/01/31 14:28:14;;;;;;;10.67;2.87;;;;;;;;;;5058445;28;20461;-78
2023/01/31 14:30:47;;;;;;;14.67;2.47;;;;;;;;;;5059158;28;20025;-76
2023/01/31 14:33:18;;;;;;;10.23;2.90;;;;;;;;;;5059225;28;20033;-78
2023/01/31 14:36:20;;;;;;;12.93;2.77;;;;;;;;;;5056039;28;20025;-78
2023/01/31 14:39:18;;;;;;;7.93;2.67;;;;;;;;;;5049867;28;20039;-78
2023/01/31 14:42:03;;;;;;;5.97;2.53;;;;;;;;;;5058780;28;20036;-79
2023/01/31 14:44:38;;;;;;;8.47;2.47;;;;;;;;;;5058763;28;20476;-76
2023/01/31 14:47:21;;;;;;;9.57;2.43;;;;;;;;;;5056004;28;20029;-78
2023/01/31 14:50:24;;;;;;;11.47;3.53;;;;;;;;;;5059830;28;20388;-87
2023/01/31 14:52:56;;;;;;;;;;;;;;;;;;5057163;28;20025;-82
2023/01/31 14:55:56;;;;;;;6.18;2.25;;;;;;;;;;5056755;28;19913;-75
2023/01/31 14:58:26;;;;;;;4.90;2.40;;;;;;;;;;5055962;28;20060;-79
2023/01/31 15:00:59;;;;;;;16.90;3.13;;;;;;;;;;5055519;28;20028;-77
2023/01/31 15:03:58;;;;;;;8.43;2.50;;;;;;;;;;5057990;28;20025;-77
2023/01/31 15:06:42;;;;;;;11.67;3.20;;;;;;;;;;5056769;28;20037;-86
2023/01/31 15:09:14;;;;;;;11.70;2.87;;;;;;;;;;5057341;28;20025;-83
2023/01/31 15:11:45;;;;;;;7.10;2.60;;;;;;;;;;5055855;28;20068;-78
2023/01/31 15:14:25;;;;;;;17.07;3.30;;;;;;;;;;5056749;28;20090;-77
2023/01/31 15:17:00;;;;;;;10.97;2.73;;;;;;;;;;5055626;28;20139;-76
2023/01/31 15:19:33;;;;;;;14.67;3.50;;;;;;;;;;5057647;28;20397;-85
2023/01/31 15:22:03;;;;;;;;;;;;;;;;;;5057966;28;20025;-82
2023/01/31 15:24:33;;;;;;;12.30;3.03;;;;;;;;;;5056878;28;19948;-82